Fushun, China
Current Conditions -  °F | °C
As of 12:00 AM on Friday 30 Jan 2015 (Local Time) from ZYTX Reporting Station
Clear Clear  
Wind Chill:   Ceiling: Unl
Heat Index: 16°   Visibility: 6mi
Dew Point:   Wind: 11mph
Humidity: 49%   Direction: 310°NW
Pressure: 30.36"   Gusts: NA
Location:  41.87°N, 123.88°E
Report Text: ZYTX 291600Z 31005MPS CAVOK M09/M18 Q1028 NOSIG
Loading
Personal Weather Stations






























Interactive Weather Map New forecast layout! Learn more

10-Day Weather Forecast

Advertisements
Track Severe Weather on mobile